sensor_id;sensor_type;location;lat;lon;timestamp;pressure;altitude;pressure_sealevel;temperature;humidity
43503;BME280;29098;48.184;16.298;2023-11-22T00:00:10;99323.06;;;7.37;100.00
43503;BME280;29098;48.184;16.298;2023-11-22T00:02:37;99279.97;;;7.39;100.00
43503;BME280;29098;48.184;16.298;2023-11-22T00:05:03;99304.56;;;7.47;100.00
43503;BME280;29098;48.184;16.298;2023-11-22T00:07:33;99308.81;;;7.48;100.00
43503;BME280;29098;48.184;16.298;2023-11-22T00:10:02;99282.25;;;7.43;100.00
43503;BME280;29098;48.184;16.298;2023-11-22T00:12:29;99286.53;;;7.44;100.00
43503;BME280;29098;48.184;16.298;2023-11-22T00:15:02;99320.31;;;7.63;100.00
43503;BME280;29098;48.184;16.298;2023-11-22T00:17:29;99289.81;;;7.54;100.00
43503;BME280;29098;48.184;16.298;2023-11-22T00:19:55;99322.28;;;7.61;100.00
43503;BME280;29098;48.184;16.298;2023-11-22T00:22:20;99315.06;;;7.63;100.00
43503;BME280;29098;48.184;16.298;2023-11-22T00:24:46;99326.91;;;7.59;100.00
43503;BME280;29098;48.184;16.298;2023-11-22T00:27:15;99368.88;;;7.67;100.00
43503;BME280;29098;48.184;16.298;2023-11-22T00:29:41;99355.28;;;7.72;100.00
43503;BME280;29098;48.184;16.298;2023-11-22T00:32:06;99363.94;;;7.64;100.00
43503;BME280;29098;48.184;16.298;2023-11-22T00:34:33;99343.63;;;7.66;100.00
43503;BME280;29098;48.184;16.298;2023-11-22T00:36:58;99345.75;;;7.79;100.00
43503;BME280;29098;48.184;16.298;2023-11-22T00:39:24;99351.66;;;7.65;100.00
43503;BME280;29098;48.184;16.298;2023-11-22T00:41:50;99375.06;;;7.58;100.00
43503;BME280;29098;48.184;16.298;2023-11-22T00:44:15;99320.47;;;7.45;100.00
43503;BME280;29098;48.184;16.298;2023-11-22T00:46:41;99367.69;;;7.53;100.00
43503;BME280;29098;48.184;16.298;2023-11-22T00:49:07;99359.00;;;7.45;100.00
43503;BME280;29098;48.184;16.298;2023-11-22T00:51:35;99342.13;;;7.47;100.00
43503;BME280;29098;48.184;16.298;2023-11-22T00:54:01;99384.25;;;7.54;100.00
43503;BME280;29098;48.184;16.298;2023-11-22T00:56:27;99341.25;;;7.30;100.00
43503;BME280;29098;48.184;16.298;2023-11-22T00:58:53;99390.16;;;7.48;100.00
43503;BME280;29098;48.184;16.298;2023-11-22T01:01:20;99399.00;;;7.47;100.00
43503;BME280;29098;48.184;16.298;2023-11-22T01:03:46;99378.34;;;7.44;100.00
43503;BME280;29098;48.184;16.298;2023-11-22T01:06:14;99392.75;;;7.39;100.00
43503;BME280;29098;48.184;16.298;2023-11-22T01:08:40;99384.53;;;7.43;100.00
43503;BME280;29098;48.184;16.298;2023-11-22T01:11:05;99397.16;;;7.39;100.00
43503;BME280;29098;48.184;16.298;2023-11-22T01:13:32;99389.63;;;7.36;100.00
43503;BME280;29098;48.184;16.298;2023-11-22T01:16:09;99381.25;;;7.32;100.00
43503;BME280;29098;48.184;16.298;2023-11-22T01:18:35;99390.06;;;7.15;100.00
43503;BME280;29098;48.184;16.298;2023-11-22T01:21:01;99394.91;;;7.01;100.00
43503;BME280;29098;48.184;16.298;2023-11-22T01:23:26;99394.75;;;7.03;100.00
43503;BME280;29098;48.184;16.298;2023-11-22T01:25:53;99415.38;;;6.97;100.00
43503;BME280;29098;48.184;16.298;2023-11-22T01:28:19;99396.75;;;7.09;100.00
43503;BME280;29098;48.184;16.298;2023-11-22T01:30:45;99404.88;;;6.97;100.00
43503;BME280;29098;48.184;16.298;2023-11-22T01:33:15;99406.28;;;7.18;100.00
43503;BME280;29098;48.184;16.298;2023-11-22T01:35:40;99398.19;;;7.03;100.00
43503;BME280;29098;48.184;16.298;2023-11-22T01:38:06;99387.84;;;6.93;100.00
43503;BME280;29098;48.184;16.298;2023-11-22T01:40:33;99419.06;;;6.87;100.00
43503;BME280;29098;48.184;16.298;2023-11-22T01:42:59;99421.19;;;6.83;100.00
43503;BME280;29098;48.184;16.298;2023-11-22T01:45:25;99423.28;;;6.79;100.00
43503;BME280;29098;48.184;16.298;2023-11-22T01:47:51;99434.59;;;6.80;100.00
43503;BME280;29098;48.184;16.298;2023-11-22T01:50:18;99427.91;;;6.59;100.00
43503;BME280;29098;48.184;16.298;2023-11-22T01:52:45;99442.09;;;6.75;100.00
43503;BME280;29098;48.184;16.298;2023-11-22T01:55:12;99434.69;;;6.70;100.00
43503;BME280;29098;48.184;16.298;2023-11-22T01:57:39;99430.44;;;6.69;100.00
43503;BME280;29098;48.184;16.298;2023-11-22T02:00:05;99448.97;;;6.49;100.00
43503;BME280;29098;48.184;16.298;2023-11-22T02:02:39;99434.97;;;6.58;100.00
43503;BME280;29098;48.184;16.298;2023-11-22T02:05:05;99452.03;;;6.44;100.00
43503;BME280;29098;48.184;16.298;2023-11-22T02:07:30;99421.69;;;6.34;100.00
43503;BME280;29098;48.184;16.298;2023-11-22T02:09:57;99470.44;;;6.35;100.00
43503;BME280;29098;48.184;16.298;2023-11-22T02:12:23;99458.84;;;6.37;100.00
43503;BME280;29098;48.184;16.298;2023-11-22T02:14:48;99433.31;;;6.13;100.00
43503;BME280;29098;48.184;16.298;2023-11-22T02:17:15;99450.66;;;6.14;100.00
43503;BME280;29098;48.184;16.298;2023-11-22T02:19:43;99453.41;;;6.12;100.00
43503;BME280;29098;48.184;16.298;2023-11-22T02:22:08;99456.94;;;6.21;100.00
43503;BME280;29098;48.184;16.298;2023-11-22T02:24:34;99454.22;;;6.31;100.00
43503;BME280;29098;48.184;16.298;2023-11-22T02:27:00;99474.63;;;6.27;100.00
43503;BME280;29098;48.184;16.298;2023-11-22T02:29:26;99461.72;;;6.08;100.00
43503;BME280;29098;48.184;16.298;2023-11-22T02:31:52;99462.38;;;6.10;100.00
43503;BME280;29098;48.184;16.298;2023-11-22T02:34:18;99476.00;;;6.13;100.00
43503;BME280;29098;48.184;16.298;2023-11-22T02:36:44;99476.25;;;6.20;100.00
43503;BME280;29098;48.184;16.298;2023-11-22T02:39:10;99472.47;;;6.23;100.00
43503;BME280;29098;48.184;16.298;2023-11-22T02:41:36;99461.41;;;6.11;100.00
43503;BME280;29098;48.184;16.298;2023-11-22T02:44:01;99502.19;;;6.13;100.00
43503;BME280;29098;48.184;16.298;2023-11-22T02:46:27;99492.81;;;6.11;100.00
43503;BME280;29098;48.184;16.298;2023-11-22T02:48:54;99472.06;;;6.09;100.00
43503;BME280;29098;48.184;16.298;2023-11-22T02:51:20;99450.69;;;5.86;100.00
43503;BME280;29098;48.184;16.298;2023-11-22T02:53:48;99497.38;;;5.81;100.00
43503;BME280;29098;48.184;16.298;2023-11-22T02:56:14;99496.44;;;5.82;100.00
43503;BME280;29098;48.184;16.298;2023-11-22T02:58:40;99506.25;;;5.70;100.00
43503;BME280;29098;48.184;16.298;2023-11-22T03:01:06;99516.59;;;5.71;100.00
43503;BME280;29098;48.184;16.298;2023-11-22T03:03:35;99485.00;;;5.55;100.00
43503;BME280;29098;48.184;16.298;2023-11-22T03:06:01;99466.31;;;5.49;100.00
43503;BME280;29098;48.184;16.298;2023-11-22T03:08:27;99468.25;;;5.47;100.00
43503;BME280;29098;48.184;16.298;2023-11-22T03:10:53;99512.78;;;5.28;100.00
43503;BME280;29098;48.184;16.298;2023-11-22T03:13:18;99486.03;;;5.44;100.00
43503;BME280;29098;48.184;16.298;2023-11-22T03:15:44;99544.31;;;5.54;100.00
43503;BME280;29098;48.184;16.298;2023-11-22T03:18:09;99518.59;;;5.49;100.00
43503;BME280;29098;48.184;16.298;2023-11-22T03:20:36;99511.03;;;5.56;100.00
43503;BME280;29098;48.184;16.298;2023-11-22T03:23:03;99543.94;;;5.49;100.00
43503;BME280;29098;48.184;16.298;2023-11-22T03:25:30;99566.91;;;5.55;100.00
43503;BME280;29098;48.184;16.298;2023-11-22T03:27:55;99553.19;;;5.43;100.00
43503;BME280;29098;48.184;16.298;2023-11-22T03:30:21;99535.66;;;5.54;100.00
43503;BME280;29098;48.184;16.298;2023-11-22T03:32:47;99567.94;;;5.72;100.00
43503;BME280;29098;48.184;16.298;2023-11-22T03:35:13;99566.22;;;5.53;100.00
43503;BME280;29098;48.184;16.298;2023-11-22T03:37:39;99593.72;;;5.67;100.00
43503;BME280;29098;48.184;16.298;2023-11-22T03:40:05;99576.25;;;5.58;100.00
43503;BME280;29098;48.184;16.298;2023-11-22T03:42:30;99581.69;;;5.74;100.00
43503;BME280;29098;48.184;16.298;2023-11-22T03:44:56;99582.91;;;5.80;100.00
43503;BME280;29098;48.184;16.298;2023-11-22T03:47:24;99581.19;;;5.61;100.00
43503;BME280;29098;48.184;16.298;2023-11-22T03:49:49;99575.16;;;5.51;100.00
43503;BME280;29098;48.184;16.298;2023-11-22T03:52:15;99554.03;;;5.34;100.00
43503;BME280;29098;48.184;16.298;2023-11-22T03:54:41;99617.31;;;5.38;100.00
43503;BME280;29098;48.184;16.298;2023-11-22T03:57:06;99569.69;;;5.44;100.00
43503;BME280;29098;48.184;16.298;2023-11-22T03:59:33;99575.16;;;5.03;100.00
43503;BME280;29098;48.184;16.298;2023-11-22T04:01:59;99608.13;;;5.33;100.00
43503;BME280;29098;48.184;16.298;2023-11-22T04:04:25;99598.09;;;5.29;100.00
43503;BME280;29098;48.184;16.298;2023-11-22T04:06:50;99596.16;;;5.31;100.00
43503;BME280;29098;48.184;16.298;2023-11-22T04:09:18;99611.53;;;5.34;100.00
43503;BME280;29098;48.184;16.298;2023-11-22T04:11:45;99616.66;;;5.26;100.00
43503;BME280;29098;48.184;16.298;2023-11-22T04:14:12;99621.19;;;5.24;100.00
43503;BME280;29098;48.184;16.298;2023-11-22T04:16:37;99636.88;;;5.43;100.00
43503;BME280;29098;48.184;16.298;2023-11-22T04:19:03;99634.09;;;5.35;100.00
43503;BME280;29098;48.184;16.298;2023-11-22T04:21:28;99634.09;;;5.35;100.00
43503;BME280;29098;48.184;16.298;2023-11-22T04:23:54;99625.31;;;5.26;100.00
43503;BME280;29098;48.184;16.298;2023-11-22T04:26:20;99616.25;;;5.20;100.00
43503;BME280;29098;48.184;16.298;2023-11-22T04:28:45;99659.56;;;5.33;100.00
43503;BME280;29098;48.184;16.298;2023-11-22T04:31:11;99653.66;;;5.31;100.00
43503;BME280;29098;48.184;16.298;2023-11-22T04:33:38;99663.56;;;5.47;100.00
43503;BME280;29098;48.184;16.298;2023-11-22T04:36:04;99657.75;;;5.53;100.00
43503;BME280;29098;48.184;16.298;2023-11-22T04:38:30;99642.66;;;5.17;100.00
43503;BME280;29098;48.184;16.298;2023-11-22T04:40:56;99688.34;;;5.13;100.00
43503;BME280;29098;48.184;16.298;2023-11-22T04:43:21;99659.19;;;5.28;100.00
43503;BME280;29098;48.184;16.298;2023-11-22T04:45:49;99684.19;;;5.30;100.00
43503;BME280;29098;48.184;16.298;2023-11-22T04:48:15;99697.97;;;5.23;100.00
43503;BME280;29098;48.184;16.298;2023-11-22T04:50:44;99698.66;;;5.05;100.00
43503;BME280;29098;48.184;16.298;2023-11-22T04:53:10;99711.44;;;5.08;100.00
43503;BME280;29098;48.184;16.298;2023-11-22T04:55:36;99719.56;;;5.05;100.00
43503;BME280;29098;48.184;16.298;2023-11-22T04:58:02;99715.84;;;5.07;100.00
43503;BME280;29098;48.184;16.298;2023-11-22T05:00:28;99716.41;;;5.01;100.00
43503;BME280;29098;48.184;16.298;2023-11-22T05:02:54;99732.34;;;5.08;100.00
43503;BME280;29098;48.184;16.298;2023-11-22T05:05:20;99728.34;;;5.04;100.00
43503;BME280;29098;48.184;16.298;2023-11-22T05:07:46;99694.38;;;4.84;100.00
43503;BME280;29098;48.184;16.298;2023-11-22T05:10:13;99706.50;;;5.05;100.00
43503;BME280;29098;48.184;16.298;2023-11-22T05:12:39;99733.16;;;4.99;100.00
43503;BME280;29098;48.184;16.298;2023-11-22T05:15:06;99748.84;;;4.99;100.00
43503;BME280;29098;48.184;16.298;2023-11-22T05:17:32;99736.03;;;4.86;100.00
43503;BME280;29098;48.184;16.298;2023-11-22T05:19:58;99730.63;;;4.77;100.00
43503;BME280;29098;48.184;16.298;2023-11-22T05:22:23;99778.22;;;4.81;100.00
43503;BME280;29098;48.184;16.298;2023-11-22T05:24:49;99765.88;;;4.83;100.00
43503;BME280;29098;48.184;16.298;2023-11-22T05:27:14;99766.28;;;4.78;100.00
43503;BME280;29098;48.184;16.298;2023-11-22T05:29:40;99736.44;;;4.71;100.00
43503;BME280;29098;48.184;16.298;2023-11-22T05:32:06;99769.44;;;4.82;100.00
43503;BME280;29098;48.184;16.298;2023-11-22T05:34:32;99760.75;;;4.72;100.00
43503;BME280;29098;48.184;16.298;2023-11-22T05:36:58;99790.56;;;4.69;100.00
43503;BME280;29098;48.184;16.298;2023-11-22T05:39:24;99743.38;;;4.61;100.00
43503;BME280;29098;48.184;16.298;2023-11-22T05:41:50;99791.69;;;4.76;100.00
43503;BME280;29098;48.184;16.298;2023-11-22T05:44:16;99793.06;;;4.80;100.00
43503;BME280;29098;48.184;16.298;2023-11-22T05:46:42;99778.16;;;4.61;100.00
43503;BME280;29098;48.184;16.298;2023-11-22T05:49:08;99772.09;;;4.51;100.00
43503;BME280;29098;48.184;16.298;2023-11-22T05:51:35;99761.09;;;4.47;100.00
43503;BME280;29098;48.184;16.298;2023-11-22T05:54:01;99772.00;;;4.62;100.00
43503;BME280;29098;48.184;16.298;2023-11-22T05:56:27;99767.56;;;4.53;100.00
43503;BME280;29098;48.184;16.298;2023-11-22T05:58:52;99769.78;;;4.58;100.00
43503;BME280;29098;48.184;16.298;2023-11-22T06:01:18;99766.00;;;4.41;100.00
43503;BME280;29098;48.184;16.298;2023-11-22T06:03:43;99768.94;;;4.57;100.00
43503;BME280;29098;48.184;16.298;2023-11-22T06:06:09;99788.97;;;4.47;100.00
43503;BME280;29098;48.184;16.298;2023-11-22T06:08:35;99770.34;;;4.30;100.00
43503;BME280;29098;48.184;16.298;2023-11-22T06:11:01;99812.50;;;4.57;100.00
43503;BME280;29098;48.184;16.298;2023-11-22T06:13:27;99790.44;;;4.39;100.00
43503;BME280;29098;48.184;16.298;2023-11-22T06:15:53;99831.06;;;4.32;100.00
43503;BME280;29098;48.184;16.298;2023-11-22T06:18:18;99818.19;;;4.41;100.00
43503;BME280;29098;48.184;16.298;2023-11-22T06:20:45;99849.63;;;4.60;100.00
43503;BME280;29098;48.184;16.298;2023-11-22T06:23:12;99841.88;;;4.49;100.00
43503;BME280;29098;48.184;16.298;2023-11-22T06:25:38;99815.94;;;4.57;100.00
43503;BME280;29098;48.184;16.298;2023-11-22T06:28:05;99858.44;;;4.59;100.00
43503;BME280;29098;48.184;16.298;2023-11-22T06:30:30;99842.44;;;4.52;100.00
43503;BME280;29098;48.184;16.298;2023-11-22T06:32:56;99878.03;;;4.53;100.00
43503;BME280;29098;48.184;16.298;2023-11-22T06:35:22;99800.59;;;4.33;100.00
43503;BME280;29098;48.184;16.298;2023-11-22T06:37:47;99864.56;;;4.48;100.00
43503;BME280;29098;48.184;16.298;2023-11-22T06:40:13;99864.69;;;4.47;100.00
43503;BME280;29098;48.184;16.298;2023-11-22T06:42:42;99859.28;;;4.38;100.00
43503;BME280;29098;48.184;16.298;2023-11-22T06:45:08;99833.50;;;4.24;100.00
43503;BME280;29098;48.184;16.298;2023-11-22T06:47:38;99862.63;;;4.50;100.00
43503;BME280;29098;48.184;16.298;2023-11-22T06:50:04;99869.91;;;4.47;100.00
43503;BME280;29098;48.184;16.298;2023-11-22T06:52:35;99856.34;;;4.53;100.00
43503;BME280;29098;48.184;16.298;2023-11-22T06:55:02;99888.44;;;4.44;100.00
43503;BME280;29098;48.184;16.298;2023-11-22T06:57:27;99860.75;;;4.31;100.00
43503;BME280;29098;48.184;16.298;2023-11-22T06:59:55;99865.31;;;4.18;100.00
43503;BME280;29098;48.184;16.298;2023-11-22T07:02:21;99875.63;;;4.41;100.00
43503;BME280;29098;48.184;16.298;2023-11-22T07:04:47;99882.06;;;4.58;100.00
43503;BME280;29098;48.184;16.298;2023-11-22T07:07:12;99882.69;;;4.50;100.00
43503;BME280;29098;48.184;16.298;2023-11-22T07:09:42;99880.25;;;4.58;100.00
43503;BME280;29098;48.184;16.298;2023-11-22T07:12:09;99910.56;;;4.71;100.00
43503;BME280;29098;48.184;16.298;2023-11-22T07:14:35;99880.34;;;4.47;100.00
43503;BME280;29098;48.184;16.298;2023-11-22T07:17:02;99949.41;;;4.43;100.00
43503;BME280;29098;48.184;16.298;2023-11-22T07:19:27;99925.03;;;4.32;100.00
43503;BME280;29098;48.184;16.298;2023-11-22T07:21:53;99962.25;;;4.46;100.00
43503;BME280;29098;48.184;16.298;2023-11-22T07:24:19;99914.94;;;4.39;100.00
43503;BME280;29098;48.184;16.298;2023-11-22T07:26:45;99983.94;;;4.46;100.00
43503;BME280;29098;48.184;16.298;2023-11-22T07:29:10;99971.25;;;4.42;100.00
43503;BME280;29098;48.184;16.298;2023-11-22T07:31:38;99960.41;;;4.36;100.00
43503;BME280;29098;48.184;16.298;2023-11-22T07:34:04;99954.06;;;4.18;100.00
43503;BME280;29098;48.184;16.298;2023-11-22T07:36:31;99947.84;;;4.30;100.00
43503;BME280;29098;48.184;16.298;2023-11-22T07:38:57;99974.53;;;4.34;100.00
43503;BME280;29098;48.184;16.298;2023-11-22T07:41:23;99997.38;;;4.42;100.00
43503;BME280;29098;48.184;16.298;2023-11-22T07:43:48;99963.81;;;4.37;100.00
43503;BME280;29098;48.184;16.298;2023-11-22T07:46:15;99967.50;;;4.34;100.00
43503;BME280;29098;48.184;16.298;2023-11-22T07:48:42;99981.06;;;4.28;100.00
43503;BME280;29098;48.184;16.298;2023-11-22T07:51:08;99960.19;;;4.28;100.00
43503;BME280;29098;48.184;16.298;2023-11-22T07:53:35;99968.13;;;4.27;100.00
43503;BME280;29098;48.184;16.298;2023-11-22T07:56:01;100003.31;;;4.44;100.00
43503;BME280;29098;48.184;16.298;2023-11-22T07:58:30;100005.16;;;4.32;100.00
43503;BME280;29098;48.184;16.298;2023-11-22T08:00:57;100022.47;;;4.21;100.00
43503;BME280;29098;48.184;16.298;2023-11-22T08:03:25;99980.91;;;4.08;100.00
43503;BME280;29098;48.184;16.298;2023-11-22T08:05:51;100034.47;;;4.24;100.00
43503;BME280;29098;48.184;16.298;2023-11-22T08:08:21;99966.88;;;4.21;100.00
43503;BME280;29098;48.184;16.298;2023-11-22T08:10:47;100020.34;;;4.27;100.00
43503;BME280;29098;48.184;16.298;2023-11-22T08:13:14;100009.34;;;4.11;100.00
43503;BME280;29098;48.184;16.298;2023-11-22T08:15:41;100037.66;;;4.28;100.00
43503;BME280;29098;48.184;16.298;2023-11-22T08:18:07;100015.94;;;4.27;100.00
43503;BME280;29098;48.184;16.298;2023-11-22T08:20:33;100036.59;;;4.30;100.00
43503;BME280;29098;48.184;16.298;2023-11-22T08:22:58;100030.66;;;4.28;100.00
43503;BME280;29098;48.184;16.298;2023-11-22T08:25:24;100034.78;;;4.31;100.00
43503;BME280;29098;48.184;16.298;2023-11-22T08:27:49;100003.69;;;4.06;100.00
43503;BME280;29098;48.184;16.298;2023-11-22T08:30:15;100023.81;;;4.16;100.00
43503;BME280;29098;48.184;16.298;2023-11-22T08:32:44;100034.00;;;4.19;100.00
43503;BME280;29098;48.184;16.298;2023-11-22T08:35:12;100004.78;;;4.25;100.00
43503;BME280;29098;48.184;16.298;2023-11-22T08:37:39;100056.31;;;4.23;100.00
43503;BME280;29098;48.184;16.298;2023-11-22T08:40:07;100018.84;;;4.13;100.00
43503;BME280;29098;48.184;16.298;2023-11-22T08:42:34;100039.13;;;4.09;100.00
43503;BME280;29098;48.184;16.298;2023-11-22T08:45:01;100056.56;;;4.20;100.00
43503;BME280;29098;48.184;16.298;2023-11-22T08:47:28;100027.69;;;4.21;100.00
43503;BME280;29098;48.184;16.298;2023-11-22T08:49:55;100075.25;;;4.25;100.00
43503;BME280;29098;48.184;16.298;2023-11-22T08:52:21;100066.03;;;4.21;100.00
43503;BME280;29098;48.184;16.298;2023-11-22T08:54:49;100053.91;;;4.31;100.00
43503;BME280;29098;48.184;16.298;2023-11-22T08:57:14;100076.81;;;4.28;100.00
43503;BME280;29098;48.184;16.298;2023-11-22T08:59:40;100068.88;;;4.18;100.00
43503;BME280;29098;48.184;16.298;2023-11-22T09:02:06;100068.50;;;4.34;100.00
43503;BME280;29098;48.184;16.298;2023-11-22T09:04:33;100083.09;;;4.36;100.00
43503;BME280;29098;48.184;16.298;2023-11-22T09:06:58;100084.75;;;4.37;100.00
43503;BME280;29098;48.184;16.298;2023-11-22T09:09:24;100072.63;;;4.36;100.00
43503;BME280;29098;48.184;16.298;2023-11-22T09:11:57;100099.34;;;4.40;100.00
43503;BME280;29098;48.184;16.298;2023-11-22T09:14:23;100104.78;;;4.37;100.00
43503;BME280;29098;48.184;16.298;2023-11-22T09:16:50;100094.16;;;4.17;100.00
43503;BME280;29098;48.184;16.298;2023-11-22T09:19:24;100113.81;;;4.33;100.00
43503;BME280;29098;48.184;16.298;2023-11-22T09:21:51;100081.06;;;4.40;100.00
43503;BME280;29098;48.184;16.298;2023-11-22T09:24:17;100111.69;;;4.15;100.00
43503;BME280;29098;48.184;16.298;2023-11-22T09:26:43;100107.53;;;4.35;100.00
43503;BME280;29098;48.184;16.298;2023-11-22T09:29:10;100111.44;;;4.41;100.00
43503;BME280;29098;48.184;16.298;2023-11-22T09:31:39;100106.41;;;4.49;100.00
43503;BME280;29098;48.184;16.298;2023-11-22T09:34:04;100107.97;;;4.52;100.00
43503;BME280;29098;48.184;16.298;2023-11-22T09:36:30;100086.97;;;4.42;100.00
43503;BME280;29098;48.184;16.298;2023-11-22T09:38:59;100077.19;;;4.23;100.00
43503;BME280;29098;48.184;16.298;2023-11-22T09:41:25;100085.91;;;4.33;100.00
43503;BME280;29098;48.184;16.298;2023-11-22T09:43:53;100068.78;;;4.08;100.00
43503;BME280;29098;48.184;16.298;2023-11-22T09:46:19;100069.09;;;4.26;100.00
43503;BME280;29098;48.184;16.298;2023-11-22T09:48:48;100084.25;;;4.44;100.00
43503;BME280;29098;48.184;16.298;2023-11-22T09:51:24;100091.06;;;4.56;100.00
43503;BME280;29098;48.184;16.298;2023-11-22T09:53:56;100135.31;;;4.69;100.00
43503;BME280;29098;48.184;16.298;2023-11-22T09:56:26;100133.66;;;4.68;100.00
43503;BME280;29098;48.184;16.298;2023-11-22T09:58:53;100123.47;;;4.53;100.00
43503;BME280;29098;48.184;16.298;2023-11-22T10:01:21;100134.06;;;4.52;100.00
43503;BME280;29098;48.184;16.298;2023-11-22T10:03:47;100119.31;;;4.62;100.00
43503;BME280;29098;48.184;16.298;2023-11-22T10:06:13;100152.50;;;4.72;100.00
43503;BME280;29098;48.184;16.298;2023-11-22T10:08:40;100094.38;;;4.58;100.00
43503;BME280;29098;48.184;16.298;2023-11-22T10:11:06;100133.53;;;4.70;100.00
43503;BME280;29098;48.184;16.298;2023-11-22T10:13:33;100124.78;;;4.59;100.00
43503;BME280;29098;48.184;16.298;2023-11-22T10:16:10;100104.28;;;4.55;100.00
43503;BME280;29098;48.184;16.298;2023-11-22T10:18:40;100124.72;;;4.82;100.00
43503;BME280;29098;48.184;16.298;2023-11-22T10:21:18;100142.59;;;4.54;100.00
43503;BME280;29098;48.184;16.298;2023-11-22T10:23:46;100127.88;;;4.53;100.00
43503;BME280;29098;48.184;16.298;2023-11-22T10:26:12;100176.19;;;4.59;100.00
43503;BME280;29098;48.184;16.298;2023-11-22T10:28:41;100143.78;;;4.50;100.00
43503;BME280;29098;48.184;16.298;2023-11-22T10:31:08;100123.84;;;4.49;100.00
43503;BME280;29098;48.184;16.298;2023-11-22T10:33:44;100123.53;;;4.42;100.00
43503;BME280;29098;48.184;16.298;2023-11-22T10:36:10;100160.44;;;4.26;100.00
43503;BME280;29098;48.184;16.298;2023-11-22T10:38:37;100151.06;;;4.35;100.00
43503;BME280;29098;48.184;16.298;2023-11-22T10:41:12;100142.16;;;4.26;100.00
43503;BME280;29098;48.184;16.298;2023-11-22T10:43:39;100142.28;;;4.36;100.00
43503;BME280;29098;48.184;16.298;2023-11-22T10:46:07;100117.38;;;4.32;100.00
43503;BME280;29098;48.184;16.298;2023-11-22T10:48:36;100117.72;;;4.38;100.00
43503;BME280;29098;48.184;16.298;2023-11-22T10:51:04;100161.63;;;4.33;100.00
43503;BME280;29098;48.184;16.298;2023-11-22T10:53:35;100103.31;;;4.00;100.00
43503;BME280;29098;48.184;16.298;2023-11-22T10:56:14;100123.78;;;4.28;100.00
43503;BME280;29098;48.184;16.298;2023-11-22T10:58:47;100142.06;;;4.28;100.00
43503;BME280;29098;48.184;16.298;2023-11-22T11:01:15;100144.06;;;4.35;100.00
43503;BME280;29098;48.184;16.298;2023-11-22T11:03:46;100160.22;;;4.29;100.00
43503;BME280;29098;48.184;16.298;2023-11-22T11:06:19;100157.63;;;4.06;100.00
43503;BME280;29098;48.184;16.298;2023-11-22T11:08:46;100193.66;;;4.24;100.00
43503;BME280;29098;48.184;16.298;2023-11-22T11:11:13;100190.34;;;4.22;100.00
43503;BME280;29098;48.184;16.298;2023-11-22T11:13:40;100171.25;;;4.21;100.00
43503;BME280;29098;48.184;16.298;2023-11-22T11:16:06;100171.97;;;4.12;100.00
43503;BME280;29098;48.184;16.298;2023-11-22T11:18:33;100167.44;;;4.14;100.00
43503;BME280;29098;48.184;16.298;2023-11-22T11:20:59;100175.41;;;4.13;100.00
43503;BME280;29098;48.184;16.298;2023-11-22T11:23:26;100131.75;;;4.15;100.00
43503;BME280;29098;48.184;16.298;2023-11-22T11:25:54;100134.13;;;3.95;100.00
43503;BME280;29098;48.184;16.298;2023-11-22T11:28:21;100190.81;;;4.04;100.00
43503;BME280;29098;48.184;16.298;2023-11-22T11:30:47;100192.84;;;4.12;100.00
43503;BME280;29098;48.184;16.298;2023-11-22T11:33:15;100201.72;;;4.09;100.00
43503;BME280;29098;48.184;16.298;2023-11-22T11:35:49;100229.50;;;4.10;100.00
43503;BME280;29098;48.184;16.298;2023-11-22T11:38:19;100232.13;;;4.22;100.00
43503;BME280;29098;48.184;16.298;2023-11-22T11:40:53;100197.97;;;4.14;100.00
43503;BME280;29098;48.184;16.298;2023-11-22T11:43:48;100194.38;;;4.26;100.00
43503;BME280;29098;48.184;16.298;2023-11-22T11:46:15;100199.84;;;4.23;100.00
43503;BME280;29098;48.184;16.298;2023-11-22T11:48:45;100232.94;;;4.34;100.00
43503;BME280;29098;48.184;16.298;2023-11-22T11:51:19;100206.94;;;4.32;100.00
43503;BME280;29098;48.184;16.298;2023-11-22T11:53:45;100188.78;;;4.31;100.00
43503;BME280;29098;48.184;16.298;2023-11-22T11:56:12;100217.41;;;4.32;100.00
43503;BME280;29098;48.184;16.298;2023-11-22T11:58:38;100203.53;;;4.09;100.00
43503;BME280;29098;48.184;16.298;2023-11-22T12:01:05;100198.31;;;4.09;100.00
43503;BME280;29098;48.184;16.298;2023-11-22T12:03:33;100240.91;;;4.21;100.00
43503;BME280;29098;48.184;16.298;2023-11-22T12:05:59;100193.19;;;4.07;100.00
43503;BME280;29098;48.184;16.298;2023-11-22T12:08:24;100216.34;;;4.12;100.00
43503;BME280;29098;48.184;16.298;2023-11-22T12:10:50;100238.75;;;4.26;100.00
43503;BME280;29098;48.184;16.298;2023-11-22T12:13:22;100240.06;;;4.43;100.00
43503;BME280;29098;48.184;16.298;2023-11-22T12:15:48;100238.16;;;4.11;100.00
43503;BME280;29098;48.184;16.298;2023-11-22T12:18:13;100234.09;;;4.07;100.00
43503;BME280;29098;48.184;16.298;2023-11-22T12:20:39;100220.94;;;4.08;100.00
43503;BME280;29098;48.184;16.298;2023-11-22T12:23:05;100250.50;;;4.09;100.00
43503;BME280;29098;48.184;16.298;2023-11-22T12:25:32;100278.59;;;4.17;100.00
43503;BME280;29098;48.184;16.298;2023-11-22T12:27:57;100273.38;;;4.17;100.00
43503;BME280;29098;48.184;16.298;2023-11-22T12:30:33;100257.72;;;4.05;100.00
43503;BME280;29098;48.184;16.298;2023-11-22T12:33:04;100225.44;;;3.83;100.00
43503;BME280;29098;48.184;16.298;2023-11-22T12:35:30;100259.16;;;4.09;100.00
43503;BME280;29098;48.184;16.298;2023-11-22T12:37:59;100253.22;;;4.19;100.00
43503;BME280;29098;48.184;16.298;2023-11-22T12:40:29;100273.13;;;3.97;100.00
43503;BME280;29098;48.184;16.298;2023-11-22T12:42:59;100204.56;;;3.83;100.00